sensor_id;sensor_type;location;lat;lon;timestamp;temperature;humidity
72936;DHT22;61085;48.804;9.228;2022-12-07T00:03:45;5.90;99.90
72936;DHT22;61085;48.804;9.228;2022-12-07T00:06:13;5.90;99.90
72936;DHT22;61085;48.804;9.228;2022-12-07T00:08:39;5.80;99.90
72936;DHT22;61085;48.804;9.228;2022-12-07T00:11:07;5.90;99.90
72936;DHT22;61085;48.804;9.228;2022-12-07T00:13:34;5.90;99.90
72936;DHT22;61085;48.804;9.228;2022-12-07T00:18:36;5.70;99.90
72936;DHT22;61085;48.804;9.228;2022-12-07T00:21:23;5.80;99.90
72936;DHT22;61085;48.804;9.228;2022-12-07T00:23:50;5.70;99.90
72936;DHT22;61085;48.804;9.228;2022-12-07T00:26:21;5.80;99.90
72936;DHT22;61085;48.804;9.228;2022-12-07T00:28:56;5.80;99.90
72936;DHT22;61085;48.804;9.228;2022-12-07T00:31:24;5.80;99.90
72936;DHT22;61085;48.804;9.228;2022-12-07T00:33:50;5.90;99.90
72936;DHT22;61085;48.804;9.228;2022-12-07T00:36:19;5.80;99.90
72936;DHT22;61085;48.804;9.228;2022-12-07T00:38:45;5.70;99.90
72936;DHT22;61085;48.804;9.228;2022-12-07T00:41:13;5.70;99.90
72936;DHT22;61085;48.804;9.228;2022-12-07T00:43:40;5.70;99.90
72936;DHT22;61085;48.804;9.228;2022-12-07T00:46:07;5.70;99.90
72936;DHT22;61085;48.804;9.228;2022-12-07T00:48:33;5.70;99.90
72936;DHT22;61085;48.804;9.228;2022-12-07T00:50:58;5.70;99.90
72936;DHT22;61085;48.804;9.228;2022-12-07T00:53:24;5.80;99.90
72936;DHT22;61085;48.804;9.228;2022-12-07T00:55:50;5.70;99.90
72936;DHT22;61085;48.804;9.228;2022-12-07T00:58:16;5.70;99.90
72936;DHT22;61085;48.804;9.228;2022-12-07T01:00:42;5.70;99.90
72936;DHT22;61085;48.804;9.228;2022-12-07T01:03:10;5.70;99.90
72936;DHT22;61085;48.804;9.228;2022-12-07T01:05:36;5.70;99.90
72936;DHT22;61085;48.804;9.228;2022-12-07T01:08:01;5.70;99.90
72936;DHT22;61085;48.804;9.228;2022-12-07T01:10:27;5.80;99.90
72936;DHT22;61085;48.804;9.228;2022-12-07T01:12:54;5.70;99.90
72936;DHT22;61085;48.804;9.228;2022-12-07T01:15:19;5.60;99.90
72936;DHT22;61085;48.804;9.228;2022-12-07T01:17:45;5.60;99.90
72936;DHT22;61085;48.804;9.228;2022-12-07T01:20:11;5.60;99.90
72936;DHT22;61085;48.804;9.228;2022-12-07T01:22:41;5.50;99.90
72936;DHT22;61085;48.804;9.228;2022-12-07T01:25:07;5.60;99.90
72936;DHT22;61085;48.804;9.228;2022-12-07T01:27:34;5.60;99.90
72936;DHT22;61085;48.804;9.228;2022-12-07T01:30:01;5.50;99.90
72936;DHT22;61085;48.804;9.228;2022-12-07T01:32:27;5.40;99.90
72936;DHT22;61085;48.804;9.228;2022-12-07T01:34:54;5.50;99.90
72936;DHT22;61085;48.804;9.228;2022-12-07T01:37:19;5.50;99.90
72936;DHT22;61085;48.804;9.228;2022-12-07T01:39:48;5.50;99.90
72936;DHT22;61085;48.804;9.228;2022-12-07T01:42:14;5.60;99.90
72936;DHT22;61085;48.804;9.228;2022-12-07T01:47:52;5.50;99.90
72936;DHT22;61085;48.804;9.228;2022-12-07T01:50:19;5.40;99.90
72936;DHT22;61085;48.804;9.228;2022-12-07T01:52:48;5.40;99.90
72936;DHT22;61085;48.804;9.228;2022-12-07T01:55:16;5.50;99.90
72936;DHT22;61085;48.804;9.228;2022-12-07T01:57:47;5.40;99.90
72936;DHT22;61085;48.804;9.228;2022-12-07T02:00:15;5.50;99.90
72936;DHT22;61085;48.804;9.228;2022-12-07T02:05:09;5.40;99.90
72936;DHT22;61085;48.804;9.228;2022-12-07T02:07:38;5.40;99.90
72936;DHT22;61085;48.804;9.228;2022-12-07T02:12:44;5.50;99.90
72936;DHT22;61085;48.804;9.228;2022-12-07T02:15:11;5.50;99.90
72936;DHT22;61085;48.804;9.228;2022-12-07T02:18:29;5.50;99.90
72936;DHT22;61085;48.804;9.228;2022-12-07T02:20:50;5.50;99.90
72936;DHT22;61085;48.804;9.228;2022-12-07T02:26:28;5.50;99.90
72936;DHT22;61085;48.804;9.228;2022-12-07T02:31:46;5.50;99.90
72936;DHT22;61085;48.804;9.228;2022-12-07T02:36:54;5.40;99.90
72936;DHT22;61085;48.804;9.228;2022-12-07T02:39:50;5.40;99.90
72936;DHT22;61085;48.804;9.228;2022-12-07T02:42:19;5.40;99.90
72936;DHT22;61085;48.804;9.228;2022-12-07T02:44:48;5.60;99.90
72936;DHT22;61085;48.804;9.228;2022-12-07T02:47:16;5.40;99.90
72936;DHT22;61085;48.804;9.228;2022-12-07T02:49:43;5.40;99.90
72936;DHT22;61085;48.804;9.228;2022-12-07T02:52:08;5.30;99.90
72936;DHT22;61085;48.804;9.228;2022-12-07T02:54:34;5.30;99.90
72936;DHT22;61085;48.804;9.228;2022-12-07T03:00:05;5.30;99.90
72936;DHT22;61085;48.804;9.228;2022-12-07T03:16:23;5.40;99.90
72936;DHT22;61085;48.804;9.228;2022-12-07T03:21:26;5.50;99.90
72936;DHT22;61085;48.804;9.228;2022-12-07T03:23:56;5.40;99.90
72936;DHT22;61085;48.804;9.228;2022-12-07T03:26:31;5.30;99.90
72936;DHT22;61085;48.804;9.228;2022-12-07T03:29:01;5.30;99.90
72936;DHT22;61085;48.804;9.228;2022-12-07T03:31:38;5.30;99.90
72936;DHT22;61085;48.804;9.228;2022-12-07T03:34:16;5.30;99.90
72936;DHT22;61085;48.804;9.228;2022-12-07T03:36:57;5.40;99.90
72936;DHT22;61085;48.804;9.228;2022-12-07T03:42:00;5.30;99.90
72936;DHT22;61085;48.804;9.228;2022-12-07T03:44:29;5.30;99.90
72936;DHT22;61085;48.804;9.228;2022-12-07T03:49:55;5.30;99.90
72936;DHT22;61085;48.804;9.228;2022-12-07T03:52:35;5.30;99.90
72936;DHT22;61085;48.804;9.228;2022-12-07T03:55:27;5.30;99.90
72936;DHT22;61085;48.804;9.228;2022-12-07T03:57:56;5.30;99.90
72936;DHT22;61085;48.804;9.228;2022-12-07T04:00:24;5.30;99.90
72936;DHT22;61085;48.804;9.228;2022-12-07T04:02:53;5.30;99.90
72936;DHT22;61085;48.804;9.228;2022-12-07T04:05:20;5.30;99.90
72936;DHT22;61085;48.804;9.228;2022-12-07T04:07:45;5.20;99.90
72936;DHT22;61085;48.804;9.228;2022-12-07T04:10:11;5.20;99.90
72936;DHT22;61085;48.804;9.228;2022-12-07T04:12:37;5.10;99.90
72936;DHT22;61085;48.804;9.228;2022-12-07T04:15:04;5.20;99.90
72936;DHT22;61085;48.804;9.228;2022-12-07T04:17:30;5.10;99.90
72936;DHT22;61085;48.804;9.228;2022-12-07T04:19:55;5.10;99.90
72936;DHT22;61085;48.804;9.228;2022-12-07T04:22:21;5.10;99.90
72936;DHT22;61085;48.804;9.228;2022-12-07T04:24:46;5.10;99.90
72936;DHT22;61085;48.804;9.228;2022-12-07T04:27:12;5.00;99.90
72936;DHT22;61085;48.804;9.228;2022-12-07T04:29:38;5.10;99.90
72936;DHT22;61085;48.804;9.228;2022-12-07T04:32:03;5.10;99.90
72936;DHT22;61085;48.804;9.228;2022-12-07T04:34:29;5.00;99.90
72936;DHT22;61085;48.804;9.228;2022-12-07T04:36:54;4.90;99.90
72936;DHT22;61085;48.804;9.228;2022-12-07T04:39:26;5.00;99.90
72936;DHT22;61085;48.804;9.228;2022-12-07T04:41:53;5.00;99.90
72936;DHT22;61085;48.804;9.228;2022-12-07T04:44:19;5.00;99.90
72936;DHT22;61085;48.804;9.228;2022-12-07T04:46:45;5.00;99.90
72936;DHT22;61085;48.804;9.228;2022-12-07T04:49:12;4.90;99.90
72936;DHT22;61085;48.804;9.228;2022-12-07T04:51:38;5.00;99.90
72936;DHT22;61085;48.804;9.228;2022-12-07T04:54:04;5.20;99.90
72936;DHT22;61085;48.804;9.228;2022-12-07T04:56:29;5.00;99.90
72936;DHT22;61085;48.804;9.228;2022-12-07T04:58:55;5.00;99.90
72936;DHT22;61085;48.804;9.228;2022-12-07T05:01:22;5.00;99.90
72936;DHT22;61085;48.804;9.228;2022-12-07T05:03:48;5.00;99.90
72936;DHT22;61085;48.804;9.228;2022-12-07T05:06:14;5.00;99.90
72936;DHT22;61085;48.804;9.228;2022-12-07T05:08:40;5.00;99.90
72936;DHT22;61085;48.804;9.228;2022-12-07T05:11:07;5.00;99.90
72936;DHT22;61085;48.804;9.228;2022-12-07T05:13:35;4.90;99.90
72936;DHT22;61085;48.804;9.228;2022-12-07T05:16:01;5.00;99.90
72936;DHT22;61085;48.804;9.228;2022-12-07T05:18:27;5.10;99.90
72936;DHT22;61085;48.804;9.228;2022-12-07T05:20:52;5.10;99.90
72936;DHT22;61085;48.804;9.228;2022-12-07T05:23:18;4.90;99.90
72936;DHT22;61085;48.804;9.228;2022-12-07T05:25:46;4.90;99.90
72936;DHT22;61085;48.804;9.228;2022-12-07T05:28:11;4.90;99.90
72936;DHT22;61085;48.804;9.228;2022-12-07T05:30:37;4.80;99.90
72936;DHT22;61085;48.804;9.228;2022-12-07T05:33:03;4.70;99.90
72936;DHT22;61085;48.804;9.228;2022-12-07T05:35:29;4.70;99.90
72936;DHT22;61085;48.804;9.228;2022-12-07T05:37:55;4.50;99.90
72936;DHT22;61085;48.804;9.228;2022-12-07T05:40:21;4.50;99.90
72936;DHT22;61085;48.804;9.228;2022-12-07T05:42:46;4.50;99.90
72936;DHT22;61085;48.804;9.228;2022-12-07T05:45:12;4.50;99.90
72936;DHT22;61085;48.804;9.228;2022-12-07T05:47:38;4.50;99.90
72936;DHT22;61085;48.804;9.228;2022-12-07T05:50:04;4.60;99.90
72936;DHT22;61085;48.804;9.228;2022-12-07T05:52:30;4.50;99.90
72936;DHT22;61085;48.804;9.228;2022-12-07T05:54:56;4.60;99.90
72936;DHT22;61085;48.804;9.228;2022-12-07T05:57:22;4.60;99.90
72936;DHT22;61085;48.804;9.228;2022-12-07T05:59:47;4.60;99.90
72936;DHT22;61085;48.804;9.228;2022-12-07T06:02:15;4.60;99.90
72936;DHT22;61085;48.804;9.228;2022-12-07T06:04:46;4.60;99.90
72936;DHT22;61085;48.804;9.228;2022-12-07T06:07:14;4.70;99.90
72936;DHT22;61085;48.804;9.228;2022-12-07T06:09:40;4.60;99.90
72936;DHT22;61085;48.804;9.228;2022-12-07T06:12:06;4.60;99.90
72936;DHT22;61085;48.804;9.228;2022-12-07T06:14:53;4.60;99.90
72936;DHT22;61085;48.804;9.228;2022-12-07T06:17:18;4.60;99.90
72936;DHT22;61085;48.804;9.228;2022-12-07T06:19:44;4.60;99.90
72936;DHT22;61085;48.804;9.228;2022-12-07T06:22:10;4.70;99.90
72936;DHT22;61085;48.804;9.228;2022-12-07T06:24:37;4.60;99.90
72936;DHT22;61085;48.804;9.228;2022-12-07T06:27:04;4.60;99.90
72936;DHT22;61085;48.804;9.228;2022-12-07T06:29:30;4.70;99.90
72936;DHT22;61085;48.804;9.228;2022-12-07T06:31:56;4.70;99.90
72936;DHT22;61085;48.804;9.228;2022-12-07T06:34:22;4.70;99.90
72936;DHT22;61085;48.804;9.228;2022-12-07T06:36:49;4.70;99.90
72936;DHT22;61085;48.804;9.228;2022-12-07T06:39:35;4.70;99.90
72936;DHT22;61085;48.804;9.228;2022-12-07T06:42:01;4.70;99.90
72936;DHT22;61085;48.804;9.228;2022-12-07T06:44:26;4.70;99.90
72936;DHT22;61085;48.804;9.228;2022-12-07T06:46:52;4.90;99.90
72936;DHT22;61085;48.804;9.228;2022-12-07T06:49:18;4.80;99.90
72936;DHT22;61085;48.804;9.228;2022-12-07T06:51:43;4.90;99.90
72936;DHT22;61085;48.804;9.228;2022-12-07T06:54:11;4.90;99.90
72936;DHT22;61085;48.804;9.228;2022-12-07T06:56:37;5.00;99.90
72936;DHT22;61085;48.804;9.228;2022-12-07T06:59:03;4.90;99.90
72936;DHT22;61085;48.804;9.228;2022-12-07T07:01:30;4.90;99.90
72936;DHT22;61085;48.804;9.228;2022-12-07T07:03:56;4.90;99.90
72936;DHT22;61085;48.804;9.228;2022-12-07T07:06:22;4.90;99.90
72936;DHT22;61085;48.804;9.228;2022-12-07T07:08:47;4.80;99.90
72936;DHT22;61085;48.804;9.228;2022-12-07T07:11:13;4.70;99.90
72936;DHT22;61085;48.804;9.228;2022-12-07T07:13:39;5.10;99.90
72936;DHT22;61085;48.804;9.228;2022-12-07T07:16:05;4.80;99.90
72936;DHT22;61085;48.804;9.228;2022-12-07T07:18:31;4.80;99.90
72936;DHT22;61085;48.804;9.228;2022-12-07T07:20:57;4.80;99.90
72936;DHT22;61085;48.804;9.228;2022-12-07T07:23:23;4.90;99.90
72936;DHT22;61085;48.804;9.228;2022-12-07T07:25:48;4.90;99.90
72936;DHT22;61085;48.804;9.228;2022-12-07T07:28:15;5.00;99.90
72936;DHT22;61085;48.804;9.228;2022-12-07T07:30:40;5.00;99.90
72936;DHT22;61085;48.804;9.228;2022-12-07T07:33:06;5.10;99.90
72936;DHT22;61085;48.804;9.228;2022-12-07T07:35:34;5.20;99.90
72936;DHT22;61085;48.804;9.228;2022-12-07T07:38:00;5.10;99.90
72936;DHT22;61085;48.804;9.228;2022-12-07T07:40:26;5.00;99.90
72936;DHT22;61085;48.804;9.228;2022-12-07T07:42:54;5.00;99.90
72936;DHT22;61085;48.804;9.228;2022-12-07T07:45:21;5.10;99.90
72936;DHT22;61085;48.804;9.228;2022-12-07T07:47:48;5.20;99.90
72936;DHT22;61085;48.804;9.228;2022-12-07T07:50:14;5.20;99.90
72936;DHT22;61085;48.804;9.228;2022-12-07T07:52:39;5.30;99.90
72936;DHT22;61085;48.804;9.228;2022-12-07T07:55:06;5.30;99.90
72936;DHT22;61085;48.804;9.228;2022-12-07T07:57:34;5.30;99.90
72936;DHT22;61085;48.804;9.228;2022-12-07T08:00:00;5.30;99.90
72936;DHT22;61085;48.804;9.228;2022-12-07T08:02:26;5.30;99.90
72936;DHT22;61085;48.804;9.228;2022-12-07T08:04:55;5.40;99.60
72936;DHT22;61085;48.804;9.228;2022-12-07T08:07:20;5.40;98.80
72936;DHT22;61085;48.804;9.228;2022-12-07T08:09:46;5.40;98.20
72936;DHT22;61085;48.804;9.228;2022-12-07T08:12:12;5.50;97.50
72936;DHT22;61085;48.804;9.228;2022-12-07T08:14:38;5.50;97.40
72936;DHT22;61085;48.804;9.228;2022-12-07T08:17:03;5.50;97.00
72936;DHT22;61085;48.804;9.228;2022-12-07T08:19:31;5.40;98.00
72936;DHT22;61085;48.804;9.228;2022-12-07T08:21:57;5.50;98.30
72936;DHT22;61085;48.804;9.228;2022-12-07T08:24:23;5.60;98.30
72936;DHT22;61085;48.804;9.228;2022-12-07T08:26:50;5.60;96.20
72936;DHT22;61085;48.804;9.228;2022-12-07T08:29:16;5.60;97.30
72936;DHT22;61085;48.804;9.228;2022-12-07T08:31:41;5.60;96.70
72936;DHT22;61085;48.804;9.228;2022-12-07T08:34:07;5.80;95.20
72936;DHT22;61085;48.804;9.228;2022-12-07T08:36:36;5.70;95.90
72936;DHT22;61085;48.804;9.228;2022-12-07T08:39:02;5.80;95.90
72936;DHT22;61085;48.804;9.228;2022-12-07T08:41:27;5.80;96.60
72936;DHT22;61085;48.804;9.228;2022-12-07T08:43:53;5.80;96.50
72936;DHT22;61085;48.804;9.228;2022-12-07T08:46:24;5.90;95.00
72936;DHT22;61085;48.804;9.228;2022-12-07T08:48:54;6.00;95.30
72936;DHT22;61085;48.804;9.228;2022-12-07T08:51:21;6.00;95.30
72936;DHT22;61085;48.804;9.228;2022-12-07T08:53:49;6.20;93.40
72936;DHT22;61085;48.804;9.228;2022-12-07T08:56:15;6.30;92.40
72936;DHT22;61085;48.804;9.228;2022-12-07T08:58:41;6.30;92.20
72936;DHT22;61085;48.804;9.228;2022-12-07T09:01:07;6.20;92.40
72936;DHT22;61085;48.804;9.228;2022-12-07T09:03:33;6.10;93.00
72936;DHT22;61085;48.804;9.228;2022-12-07T09:05:59;6.30;92.50
72936;DHT22;61085;48.804;9.228;2022-12-07T09:08:31;6.20;93.20
72936;DHT22;61085;48.804;9.228;2022-12-07T09:10:58;6.30;93.50
72936;DHT22;61085;48.804;9.228;2022-12-07T09:13:24;6.30;93.60
72936;DHT22;61085;48.804;9.228;2022-12-07T09:15:49;6.40;93.30
72936;DHT22;61085;48.804;9.228;2022-12-07T09:18:15;6.30;93.70
72936;DHT22;61085;48.804;9.228;2022-12-07T09:20:41;6.40;92.80
72936;DHT22;61085;48.804;9.228;2022-12-07T09:23:06;6.40;93.50
72936;DHT22;61085;48.804;9.228;2022-12-07T09:25:33;6.40;92.90
72936;DHT22;61085;48.804;9.228;2022-12-07T09:27:59;6.60;93.40
72936;DHT22;61085;48.804;9.228;2022-12-07T09:30:26;6.70;92.30
72936;DHT22;61085;48.804;9.228;2022-12-07T09:32:56;6.70;93.70
72936;DHT22;61085;48.804;9.228;2022-12-07T09:35:23;7.10;93.10
72936;DHT22;61085;48.804;9.228;2022-12-07T09:37:49;6.90;91.40
72936;DHT22;61085;48.804;9.228;2022-12-07T09:40:16;6.90;91.60
72936;DHT22;61085;48.804;9.228;2022-12-07T09:42:47;7.00;91.30
72936;DHT22;61085;48.804;9.228;2022-12-07T09:45:32;6.90;90.20
72936;DHT22;61085;48.804;9.228;2022-12-07T09:47:59;6.80;90.60
72936;DHT22;61085;48.804;9.228;2022-12-07T09:50:27;6.90;90.70
72936;DHT22;61085;48.804;9.228;2022-12-07T09:52:55;6.90;91.60
72936;DHT22;61085;48.804;9.228;2022-12-07T09:55:26;7.10;91.00
72936;DHT22;61085;48.804;9.228;2022-12-07T09:57:52;7.20;90.50
72936;DHT22;61085;48.804;9.228;2022-12-07T10:00:20;7.20;90.10
72936;DHT22;61085;48.804;9.228;2022-12-07T10:02:51;7.20;91.00
72936;DHT22;61085;48.804;9.228;2022-12-07T10:05:30;7.20;91.10
72936;DHT22;61085;48.804;9.228;2022-12-07T10:07:57;7.30;91.10
72936;DHT22;61085;48.804;9.228;2022-12-07T10:10:31;7.30;90.70
72936;DHT22;61085;48.804;9.228;2022-12-07T10:13:02;7.20;91.10
72936;DHT22;61085;48.804;9.228;2022-12-07T10:15:43;7.10;92.10
72936;DHT22;61085;48.804;9.228;2022-12-07T10:23:35;7.10;92.30
72936;DHT22;61085;48.804;9.228;2022-12-07T10:26:21;7.20;92.40
72936;DHT22;61085;48.804;9.228;2022-12-07T10:28:51;7.30;91.70
72936;DHT22;61085;48.804;9.228;2022-12-07T10:31:20;7.30;91.20
72936;DHT22;61085;48.804;9.228;2022-12-07T10:38:48;7.20;92.80
72936;DHT22;61085;48.804;9.228;2022-12-07T10:41:14;7.00;92.50
72936;DHT22;61085;48.804;9.228;2022-12-07T10:43:47;6.90;93.70
72936;DHT22;61085;48.804;9.228;2022-12-07T10:46:51;6.90;93.80
72936;DHT22;61085;48.804;9.228;2022-12-07T10:57:56;7.00;93.70
72936;DHT22;61085;48.804;9.228;2022-12-07T11:03:41;6.90;93.90
72936;DHT22;61085;48.804;9.228;2022-12-07T11:06:27;6.90;94.40
72936;DHT22;61085;48.804;9.228;2022-12-07T11:12:05;6.90;94.70
72936;DHT22;61085;48.804;9.228;2022-12-07T11:14:40;6.80;95.50
72936;DHT22;61085;48.804;9.228;2022-12-07T11:28:04;6.80;96.70
72936;DHT22;61085;48.804;9.228;2022-12-07T11:33:15;6.60;97.80
72936;DHT22;61085;48.804;9.228;2022-12-07T11:41:27;6.90;99.90
72936;DHT22;61085;48.804;9.228;2022-12-07T11:43:59;6.70;99.50
72936;DHT22;61085;48.804;9.228;2022-12-07T11:46:36;6.70;99.60
72936;DHT22;61085;48.804;9.228;2022-12-07T11:52:06;6.80;99.70
72936;DHT22;61085;48.804;9.228;2022-12-07T11:54:40;6.70;99.90
72936;DHT22;61085;48.804;9.228;2022-12-07T11:57:19;6.70;99.90
72936;DHT22;61085;48.804;9.228;2022-12-07T11:59:57;6.70;99.90
72936;DHT22;61085;48.804;9.228;2022-12-07T12:02:38;6.70;99.90
72936;DHT22;61085;48.804;9.228;2022-12-07T12:05:17;6.70;99.90
72936;DHT22;61085;48.804;9.228;2022-12-07T12:07:45;6.70;99.90
72936;DHT22;61085;48.804;9.228;2022-12-07T12:10:24;6.70;99.90
72936;DHT22;61085;48.804;9.228;2022-12-07T12:13:33;6.50;99.90
72936;DHT22;61085;48.804;9.228;2022-12-07T12:16:16;6.50;99.90
72936;DHT22;61085;48.804;9.228;2022-12-07T12:21:25;6.50;99.90
72936;DHT22;61085;48.804;9.228;2022-12-07T12:26:31;6.60;99.90
72936;DHT22;61085;48.804;9.228;2022-12-07T12:29:00;6.60;99.90
72936;DHT22;61085;48.804;9.228;2022-12-07T12:33:58;6.90;99.90
72936;DHT22;61085;48.804;9.228;2022-12-07T12:37:07;6.80;99.90
72936;DHT22;61085;48.804;9.228;2022-12-07T12:39:19;6.90;99.90
72936;DHT22;61085;48.804;9.228;2022-12-07T12:57:14;6.80;99.90
72936;DHT22;61085;48.804;9.228;2022-12-07T13:02:35;7.00;99.20
72936;DHT22;61085;48.804;9.228;2022-12-07T13:15:52;6.90;99.10
72936;DHT22;61085;48.804;9.228;2022-12-07T13:29:18;6.70;99.20
72936;DHT22;61085;48.804;9.228;2022-12-07T13:31:56;6.70;98.90
72936;DHT22;61085;48.804;9.228;2022-12-07T13:39:45;6.90;99.10
72936;DHT22;61085;48.804;9.228;2022-12-07T13:44:45;6.90;99.10
72936;DHT22;61085;48.804;9.228;2022-12-07T13:50:02;6.80;99.10
72936;DHT22;61085;48.804;9.228;2022-12-07T13:52:31;6.80;99.10
72936;DHT22;61085;48.804;9.228;2022-12-07T13:57:33;6.70;99.60
72936;DHT22;61085;48.804;9.228;2022-12-07T14:00:05;6.80;99.60
72936;DHT22;61085;48.804;9.228;2022-12-07T14:02:34;6.70;99.30
72936;DHT22;61085;48.804;9.228;2022-12-07T14:07:56;6.60;99.50
72936;DHT22;61085;48.804;9.228;2022-12-07T14:12:56;6.60;99.90
72936;DHT22;61085;48.804;9.228;2022-12-07T14:15:32;6.70;99.90
72936;DHT22;61085;48.804;9.228;2022-12-07T14:18:00;6.70;99.80
72936;DHT22;61085;48.804;9.228;2022-12-07T14:20:40;6.90;99.50
72936;DHT22;61085;48.804;9.228;2022-12-07T14:23:24;6.80;99.90
72936;DHT22;61085;48.804;9.228;2022-12-07T14:25:52;7.00;98.80
72936;DHT22;61085;48.804;9.228;2022-12-07T14:28:36;6.70;99.20
72936;DHT22;61085;48.804;9.228;2022-12-07T14:31:03;6.70;99.40
72936;DHT22;61085;48.804;9.228;2022-12-07T14:33:28;6.70;99.40
72936;DHT22;61085;48.804;9.228;2022-12-07T14:35:55;6.60;99.20
72936;DHT22;61085;48.804;9.228;2022-12-07T14:38:24;6.70;99.70
72936;DHT22;61085;48.804;9.228;2022-12-07T14:40:51;6.70;99.90
72936;DHT22;61085;48.804;9.228;2022-12-07T14:43:18;6.70;99.90
72936;DHT22;61085;48.804;9.228;2022-12-07T14:45:44;6.70;99.90
72936;DHT22;61085;48.804;9.228;2022-12-07T14:48:14;6.60;99.90
72936;DHT22;61085;48.804;9.228;2022-12-07T14:50:45;6.60;99.80
72936;DHT22;61085;48.804;9.228;2022-12-07T14:53:14;6.80;99.50
72936;DHT22;61085;48.804;9.228;2022-12-07T14:55:40;6.80;98.80
72936;DHT22;61085;48.804;9.228;2022-12-07T14:58:08;6.70;99.00
72936;DHT22;61085;48.804;9.228;2022-12-07T15:00:35;6.70;99.20
72936;DHT22;61085;48.804;9.228;2022-12-07T15:03:01;6.60;99.20
72936;DHT22;61085;48.804;9.228;2022-12-07T15:05:27;6.60;98.90
72936;DHT22;61085;48.804;9.228;2022-12-07T15:07:52;6.60;98.90
72936;DHT22;61085;48.804;9.228;2022-12-07T15:10:21;6.50;98.60
72936;DHT22;61085;48.804;9.228;2022-12-07T15:12:47;6.50;99.20
72936;DHT22;61085;48.804;9.228;2022-12-07T15:15:13;6.50;99.50
72936;DHT22;61085;48.804;9.228;2022-12-07T15:17:38;6.40;98.80
72936;DHT22;61085;48.804;9.228;2022-12-07T15:20:05;6.30;99.30
72936;DHT22;61085;48.804;9.228;2022-12-07T15:22:31;6.30;99.70
72936;DHT22;61085;48.804;9.228;2022-12-07T15:24:57;6.30;99.90
72936;DHT22;61085;48.804;9.228;2022-12-07T15:27:23;6.40;99.90
72936;DHT22;61085;48.804;9.228;2022-12-07T15:29:48;6.40;99.90
72936;DHT22;61085;48.804;9.228;2022-12-07T15:32:14;6.40;99.90
72936;DHT22;61085;48.804;9.228;2022-12-07T15:34:39;6.30;99.90
72936;DHT22;61085;48.804;9.228;2022-12-07T15:37:06;6.30;99.90
72936;DHT22;61085;48.804;9.228;2022-12-07T15:39:31;6.30;99.90
72936;DHT22;61085;48.804;9.228;2022-12-07T15:41:57;6.30;99.90
72936;DHT22;61085;48.804;9.228;2022-12-07T15:44:22;6.20;99.90
72936;DHT22;61085;48.804;9.228;2022-12-07T15:47:07;6.30;99.90
72936;DHT22;61085;48.804;9.228;2022-12-07T15:49:32;6.20;99.90
72936;DHT22;61085;48.804;9.228;2022-12-07T15:51:58;6.20;99.90
72936;DHT22;61085;48.804;9.228;2022-12-07T15:54:26;6.30;99.90
72936;DHT22;61085;48.804;9.228;2022-12-07T15:56:52;6.10;99.90
72936;DHT22;61085;48.804;9.228;2022-12-07T15:59:18;6.10;99.90
72936;DHT22;61085;48.804;9.228;2022-12-07T16:01:43;6.10;99.90
72936;DHT22;61085;48.804;9.228;2022-12-07T16:04:09;6.20;99.90
72936;DHT22;61085;48.804;9.228;2022-12-07T16:06:35;6.30;99.90
72936;DHT22;61085;48.804;9.228;2022-12-07T16:09:01;6.10;99.90
72936;DHT22;61085;48.804;9.228;2022-12-07T16:11:27;6.10;99.90
72936;DHT22;61085;48.804;9.228;2022-12-07T16:13:52;6.10;99.90
72936;DHT22;61085;48.804;9.228;2022-12-07T16:16:19;6.20;99.90
72936;DHT22;61085;48.804;9.228;2022-12-07T16:18:47;6.10;99.90
72936;DHT22;61085;48.804;9.228;2022-12-07T16:21:14;6.10;99.90
72936;DHT22;61085;48.804;9.228;2022-12-07T16:23:40;5.90;99.90
72936;DHT22;61085;48.804;9.228;2022-12-07T16:26:08;5.90;99.90
72936;DHT22;61085;48.804;9.228;2022-12-07T16:28:34;5.90;99.90
72936;DHT22;61085;48.804;9.228;2022-12-07T16:31:04;5.80;99.90
72936;DHT22;61085;48.804;9.228;2022-12-07T16:33:30;5.90;99.90
72936;DHT22;61085;48.804;9.228;2022-12-07T16:35:55;5.90;99.90
72936;DHT22;61085;48.804;9.228;2022-12-07T16:38:24;5.90;99.90
72936;DHT22;61085;48.804;9.228;2022-12-07T16:40:49;5.90;99.90
72936;DHT22;61085;48.804;9.228;2022-12-07T16:43:15;5.80;99.90
72936;DHT22;61085;48.804;9.228;2022-12-07T16:45:41;5.70;99.90
72936;DHT22;61085;48.804;9.228;2022-12-07T16:48:09;5.70;99.90
72936;DHT22;61085;48.804;9.228;2022-12-07T16:50:39;5.70;99.90
72936;DHT22;61085;48.804;9.228;2022-12-07T16:53:05;5.60;99.90
72936;DHT22;61085;48.804;9.228;2022-12-07T16:55:30;5.50;99.90
72936;DHT22;61085;48.804;9.228;2022-12-07T16:57:56;5.60;99.90
72936;DHT22;61085;48.804;9.228;2022-12-07T17:00:22;5.50;99.90
72936;DHT22;61085;48.804;9.228;2022-12-07T17:02:47;5.40;99.90
72936;DHT22;61085;48.804;9.228;2022-12-07T17:05:13;5.30;99.90
72936;DHT22;61085;48.804;9.228;2022-12-07T17:07:39;5.30;99.90
72936;DHT22;61085;48.804;9.228;2022-12-07T17:10:05;5.40;99.90
72936;DHT22;61085;48.804;9.228;2022-12-07T17:12:31;5.40;99.90
72936;DHT22;61085;48.804;9.228;2022-12-07T17:14:57;5.30;99.90
72936;DHT22;61085;48.804;9.228;2022-12-07T17:17:41;5.30;99.90
72936;DHT22;61085;48.804;9.228;2022-12-07T17:20:07;5.30;99.90
72936;DHT22;61085;48.804;9.228;2022-12-07T17:22:33;5.20;99.90
72936;DHT22;61085;48.804;9.228;2022-12-07T17:24:58;5.30;99.90
72936;DHT22;61085;48.804;9.228;2022-12-07T17:27:24;5.30;99.90
72936;DHT22;61085;48.804;9.228;2022-12-07T17:29:49;5.40;99.90
72936;DHT22;61085;48.804;9.228;2022-12-07T17:32:15;5.30;99.90
72936;DHT22;61085;48.804;9.228;2022-12-07T17:34:41;5.30;99.90
72936;DHT22;61085;48.804;9.228;2022-12-07T17:37:06;5.20;99.90
72936;DHT22;61085;48.804;9.228;2022-12-07T17:39:32;5.20;99.90
72936;DHT22;61085;48.804;9.228;2022-12-07T17:41:57;5.30;99.90
72936;DHT22;61085;48.804;9.228;2022-12-07T17:44:41;5.30;99.90
72936;DHT22;61085;48.804;9.228;2022-12-07T17:47:08;5.40;99.90
72936;DHT22;61085;48.804;9.228;2022-12-07T17:49:35;5.40;99.90
72936;DHT22;61085;48.804;9.228;2022-12-07T17:52:01;5.40;99.90
72936;DHT22;61085;48.804;9.228;2022-12-07T17:54:45;5.40;99.90
72936;DHT22;61085;48.804;9.228;2022-12-07T17:57:11;5.40;99.90
72936;DHT22;61085;48.804;9.228;2022-12-07T17:59:37;5.40;99.90
72936;DHT22;61085;48.804;9.228;2022-12-07T18:02:03;5.40;99.90
72936;DHT22;61085;48.804;9.228;2022-12-07T18:04:29;5.30;99.90
72936;DHT22;61085;48.804;9.228;2022-12-07T18:06:54;5.40;99.90
72936;DHT22;61085;48.804;9.228;2022-12-07T18:09:20;5.40;99.90
72936;DHT22;61085;48.804;9.228;2022-12-07T18:11:47;5.50;99.90
72936;DHT22;61085;48.804;9.228;2022-12-07T18:14:13;5.40;99.90
72936;DHT22;61085;48.804;9.228;2022-12-07T18:16:38;5.50;99.90
72936;DHT22;61085;48.804;9.228;2022-12-07T18:19:05;5.40;99.90
72936;DHT22;61085;48.804;9.228;2022-12-07T18:21:32;5.50;99.90
72936;DHT22;61085;48.804;9.228;2022-12-07T18:24:02;5.40;99.90
72936;DHT22;61085;48.804;9.228;2022-12-07T18:26:30;5.50;99.90
72936;DHT22;61085;48.804;9.228;2022-12-07T18:28:58;5.50;99.90
72936;DHT22;61085;48.804;9.228;2022-12-07T18:31:24;5.50;99.90
72936;DHT22;61085;48.804;9.228;2022-12-07T18:33:50;5.50;99.90